createdAt,value
2023-04-16T00:00:40.345Z,7.03
2023-04-16T00:03:11.355Z,6.43
2023-04-16T00:05:42.671Z,6.77
2023-04-16T00:08:13.763Z,6.63
2023-04-16T00:10:45.982Z,10.03
2023-04-16T00:13:17.094Z,8.80
2023-04-16T00:15:48.311Z,6.13
2023-04-16T00:18:20.839Z,6.70
2023-04-16T00:20:52.101Z,7.50
2023-04-16T00:23:24.680Z,8.17
2023-04-16T00:25:57.372Z,7.17
2023-04-16T00:28:28.660Z,6.67
2023-04-16T00:30:59.948Z,7.43
2023-04-16T00:33:31.292Z,8.60
2023-04-16T00:36:02.278Z,7.27
2023-04-16T00:38:33.500Z,7.33
2023-04-16T00:41:04.579Z,7.37
2023-04-16T00:43:36.005Z,7.57
2023-04-16T00:46:08.161Z,5.87
2023-04-16T00:48:42.002Z,6.50
2023-04-16T00:51:15.095Z,6.53
2023-04-16T00:53:47.072Z,6.30
2023-04-16T00:56:17.943Z,6.33
2023-04-16T00:58:48.993Z,5.23
2023-04-16T01:01:20.145Z,6.73
2023-04-16T01:03:51.599Z,6.80
2023-04-16T01:06:22.795Z,7.67
2023-04-16T01:08:54.144Z,7.20
2023-04-16T01:11:25.235Z,7.17
2023-04-16T01:13:56.269Z,6.63
2023-04-16T01:16:27.704Z,6.93
2023-04-16T01:18:58.863Z,7.33
2023-04-16T01:21:29.846Z,6.87
2023-04-16T01:24:02.436Z,6.43
2023-04-16T01:26:33.673Z,7.87
2023-04-16T01:29:04.766Z,6.20
2023-04-16T01:31:35.880Z,6.60
2023-04-16T01:34:07.057Z,6.20
2023-04-16T01:36:38.308Z,6.77
2023-04-16T01:39:11.640Z,6.17
2023-04-16T01:41:42.856Z,6.47
2023-04-16T01:44:14.035Z,6.67
2023-04-16T01:46:46.453Z,10.00
2023-04-16T01:49:19.362Z,8.37
2023-04-16T01:51:51.864Z,8.10
2023-04-16T01:54:22.751Z,5.83
2023-04-16T01:56:53.861Z,7.10
2023-04-16T01:59:24.938Z,12.23
2023-04-16T02:01:56.386Z,6.57
2023-04-16T02:04:27.584Z,7.10
2023-04-16T02:06:58.967Z,5.57
2023-04-16T02:09:31.691Z,6.13
2023-04-16T02:12:03.472Z,8.07
2023-04-16T02:14:35.211Z,7.17
2023-04-16T02:17:06.248Z,6.10
2023-04-16T02:19:37.384Z,6.07
2023-04-16T02:22:08.577Z,7.03
2023-04-16T02:24:39.915Z,6.77
2023-04-16T02:27:11.421Z,6.07
2023-04-16T02:29:42.456Z,6.73
2023-04-16T02:32:14.432Z,5.83
2023-04-16T02:34:45.371Z,6.37
2023-04-16T02:37:16.264Z,7.93
2023-04-16T02:39:47.776Z,7.87
2023-04-16T02:42:19.045Z,5.87
2023-04-16T02:44:49.876Z,8.13
2023-04-16T02:47:20.866Z,6.87
2023-04-16T02:49:51.926Z,8.10
2023-04-16T02:52:22.958Z,7.00
2023-04-16T02:54:53.841Z,6.30
2023-04-16T02:57:25.000Z,7.90
2023-04-16T02:59:56.117Z,6.03
2023-04-16T03:02:27.513Z,8.47
2023-04-16T03:04:58.424Z,10.30
2023-04-16T03:07:29.318Z,6.90
2023-04-16T03:10:00.333Z,7.77
2023-04-16T03:12:31.318Z,12.37
2023-04-16T03:15:02.522Z,8.13
2023-04-16T03:17:33.714Z,7.07
2023-04-16T03:20:05.593Z,9.27
2023-04-16T03:22:36.764Z,9.98
2023-04-16T03:25:09.533Z,10.03
2023-04-16T03:27:41.091Z,8.97
2023-04-16T03:30:14.122Z,8.43
2023-04-16T03:32:45.430Z,11.60
2023-04-16T03:35:16.381Z,11.13
2023-04-16T03:37:47.429Z,8.73
2023-04-16T03:40:18.805Z,8.67
2023-04-16T03:42:50.011Z,11.70
2023-04-16T03:45:21.248Z,14.83
2023-04-16T03:47:53.174Z,9.33
2023-04-16T03:50:24.474Z,9.03
2023-04-16T03:52:55.534Z,10.43
2023-04-16T03:55:26.452Z,12.27
2023-04-16T03:57:57.657Z,13.73
2023-04-16T04:00:28.635Z,11.17
2023-04-16T04:02:59.742Z,10.20
2023-04-16T04:05:30.845Z,10.53
2023-04-16T04:08:01.740Z,9.63
2023-04-16T04:10:34.247Z,11.17
2023-04-16T04:13:06.613Z,9.80
2023-04-16T04:15:37.457Z,12.43
2023-04-16T04:18:08.502Z,11.60
2023-04-16T04:20:43.009Z,10.73
2023-04-16T04:23:14.108Z,9.97
2023-04-16T04:25:45.682Z,11.33
2023-04-16T04:28:16.853Z,10.13
2023-04-16T04:30:47.941Z,9.10
2023-04-16T04:33:19.067Z,9.67
2023-04-16T04:38:28.422Z,9.30
2023-04-16T04:40:59.667Z,10.85
2023-04-16T04:43:30.717Z,8.07
2023-04-16T04:46:01.713Z,7.60
2023-04-16T04:48:32.789Z,18.13
2023-04-16T04:51:04.997Z,10.57
2023-04-16T04:53:36.611Z,9.30
2023-04-16T04:56:12.809Z,9.20
2023-04-16T04:58:41.469Z,11.37
2023-04-16T05:01:12.577Z,13.00
2023-04-16T05:03:43.888Z,16.73
2023-04-16T05:06:15.200Z,11.30
2023-04-16T05:08:46.209Z,13.32
2023-04-16T05:11:18.673Z,13.00
2023-04-16T05:13:49.848Z,12.43
2023-04-16T05:16:20.926Z,15.20
2023-04-16T05:18:52.164Z,13.43
2023-04-16T05:21:23.518Z,15.03
2023-04-16T05:26:33.117Z,15.97
2023-04-16T05:29:04.840Z,14.40
2023-04-16T05:31:36.156Z,13.23
2023-04-16T05:34:25.815Z,15.03
2023-04-16T05:36:56.940Z,18.90
2023-04-16T05:39:28.156Z,14.60
2023-04-16T05:41:59.394Z,13.90
2023-04-16T05:44:31.547Z,14.20
2023-04-16T05:47:02.631Z,15.50
2023-04-16T05:49:34.171Z,14.40
2023-04-16T05:52:05.961Z,16.53
2023-04-16T05:54:37.213Z,14.17
2023-04-16T05:57:08.408Z,13.80
2023-04-16T05:59:39.678Z,12.37
2023-04-16T06:02:11.039Z,15.20
2023-04-16T06:04:42.498Z,15.50
2023-04-16T06:07:13.815Z,17.00
2023-04-16T06:09:46.098Z,17.57
2023-04-16T06:12:17.531Z,16.83
2023-04-16T06:14:48.521Z,16.03
2023-04-16T06:17:19.587Z,14.63
2023-04-16T06:19:50.624Z,13.63
2023-04-16T06:22:22.671Z,15.30
2023-04-16T06:24:56.429Z,14.13
2023-04-16T06:27:27.548Z,13.70
2023-04-16T06:30:00.061Z,12.03
2023-04-16T06:32:31.757Z,13.03
2023-04-16T06:35:03.075Z,12.17
2023-04-16T06:37:34.333Z,12.07
2023-04-16T06:40:06.094Z,16.20
2023-04-16T06:42:37.276Z,11.57
2023-04-16T06:45:10.675Z,12.00
2023-04-16T06:47:41.836Z,14.40
2023-04-16T06:50:13.912Z,13.77
2023-04-16T06:52:44.936Z,11.97
2023-04-16T06:55:15.871Z,11.80
2023-04-16T06:57:46.825Z,10.13
2023-04-16T07:00:18.992Z,10.37
2023-04-16T07:02:50.593Z,11.43
2023-04-16T07:05:22.367Z,10.00
2023-04-16T07:07:53.607Z,9.40
2023-04-16T07:10:25.180Z,8.90
2023-04-16T07:12:56.667Z,12.97
2023-04-16T07:15:28.097Z,11.43
2023-04-16T07:17:59.337Z,8.13
2023-04-16T07:20:30.762Z,14.00
2023-04-16T07:23:02.110Z,9.83
2023-04-16T07:25:33.370Z,9.97
2023-04-16T07:28:05.288Z,8.43
2023-04-16T07:30:36.661Z,8.17
2023-04-16T07:33:07.983Z,8.60
2023-04-16T07:35:38.985Z,7.10
2023-04-16T07:38:10.232Z,10.40
2023-04-16T07:40:41.579Z,10.37
2023-04-16T07:43:13.678Z,10.40
2023-04-16T07:45:44.829Z,7.63
2023-04-16T07:48:15.747Z,6.50
2023-04-16T07:50:47.814Z,8.20
2023-04-16T07:53:18.912Z,6.63
2023-04-16T07:55:50.337Z,8.73
2023-04-16T07:58:21.358Z,8.60
2023-04-16T08:00:52.885Z,7.47
2023-04-16T08:03:42.596Z,8.50
2023-04-16T08:06:14.174Z,7.10
2023-04-16T08:08:45.648Z,10.73
2023-04-16T08:11:16.835Z,10.13
2023-04-16T08:13:48.007Z,7.07
2023-04-16T08:16:19.713Z,6.70
2023-04-16T08:21:30.917Z,9.83
2023-04-16T08:24:02.092Z,10.83
2023-04-16T08:26:33.155Z,7.10
2023-04-16T08:29:04.534Z,10.93
2023-04-16T08:31:35.886Z,7.77
2023-04-16T08:34:06.951Z,9.53
2023-04-16T08:36:38.281Z,7.47
2023-04-16T08:39:11.110Z,7.93
2023-04-16T08:44:27.295Z,16.40
2023-04-16T08:46:59.312Z,7.27
2023-04-16T08:49:30.898Z,7.97
2023-04-16T08:52:05.197Z,7.00
2023-04-16T08:54:39.040Z,7.07
2023-04-16T08:57:13.102Z,6.17
2023-04-16T08:59:47.478Z,7.50
2023-04-16T09:02:20.041Z,6.13
2023-04-16T09:04:52.883Z,12.03
2023-04-16T09:07:25.376Z,6.80
2023-04-16T09:09:57.434Z,6.10
2023-04-16T09:12:28.908Z,7.37
2023-04-16T09:15:02.804Z,5.87
2023-04-16T09:17:36.102Z,6.17
2023-04-16T09:20:09.664Z,5.70
2023-04-16T09:22:41.429Z,7.70
2023-04-16T09:25:14.144Z,5.53
2023-04-16T09:27:45.504Z,5.13
2023-04-16T09:30:25.179Z,6.43
2023-04-16T09:33:06.100Z,6.27
2023-04-16T09:35:43.187Z,6.13
2023-04-16T09:38:14.298Z,6.80
2023-04-16T09:40:48.602Z,4.97
2023-04-16T09:43:20.358Z,5.17
2023-04-16T09:45:55.628Z,5.03
2023-04-16T09:48:33.486Z,5.47
2023-04-16T09:51:06.497Z,6.43
2023-04-16T09:53:37.711Z,5.67
2023-04-16T09:56:10.287Z,4.83
2023-04-16T09:58:42.245Z,4.70
2023-04-16T10:01:14.494Z,5.23
2023-04-16T10:03:47.386Z,5.20
2023-04-16T10:06:19.814Z,6.70
2023-04-16T10:08:52.861Z,5.27
2023-04-16T10:11:24.334Z,4.10
2023-04-16T10:13:55.252Z,3.50
2023-04-16T10:16:26.485Z,4.77
2023-04-16T10:18:58.110Z,4.50
2023-04-16T10:21:31.992Z,4.93
2023-04-16T10:24:04.555Z,6.83
2023-04-16T10:26:36.742Z,4.33
2023-04-16T10:29:10.816Z,5.63
2023-04-16T10:31:43.308Z,5.42
2023-04-16T10:34:14.519Z,3.63
2023-04-16T10:36:47.149Z,5.73
2023-04-16T10:39:20.782Z,6.00
2023-04-16T10:41:52.730Z,4.30
2023-04-16T10:44:26.302Z,5.27
2023-04-16T10:46:57.720Z,4.50
2023-04-16T10:49:29.337Z,7.00
2023-04-16T10:52:02.544Z,6.23
2023-04-16T10:54:35.416Z,3.67
2023-04-16T10:57:08.917Z,4.37
2023-04-16T10:59:42.205Z,4.00
2023-04-16T11:02:16.163Z,4.40
2023-04-16T11:04:48.603Z,3.47
2023-04-16T11:07:22.160Z,5.80
2023-04-16T11:09:59.843Z,3.93
2023-04-16T11:12:35.536Z,5.00
2023-04-16T11:15:09.022Z,3.53
2023-04-16T11:17:41.875Z,4.03
2023-04-16T11:20:31.599Z,5.73
2023-04-16T11:23:02.598Z,3.93
2023-04-16T11:25:34.457Z,3.70
2023-04-16T11:28:05.375Z,5.77
2023-04-16T11:30:37.943Z,3.80
2023-04-16T11:33:11.567Z,5.87
2023-04-16T11:35:43.503Z,4.20
2023-04-16T11:38:14.351Z,4.83
2023-04-16T11:41:04.025Z,3.33
2023-04-16T11:43:35.306Z,5.43
2023-04-16T11:46:16.163Z,3.47
2023-04-16T11:48:53.612Z,7.83
2023-04-16T11:54:03.628Z,2.73
2023-04-16T11:56:37.350Z,5.93
2023-04-16T11:59:13.483Z,3.40
2023-04-16T12:01:47.120Z,5.23
2023-04-16T12:04:18.795Z,4.10
2023-04-16T12:07:26.271Z,4.93
2023-04-16T12:10:07.949Z,3.90
2023-04-16T12:12:40.331Z,3.93
2023-04-16T12:15:12.653Z,3.43
2023-04-16T12:17:44.268Z,5.27
2023-04-16T12:20:16.468Z,4.13
2023-04-16T12:22:49.731Z,3.30
2023-04-16T12:27:59.676Z,3.10
2023-04-16T12:30:31.404Z,3.10
2023-04-16T12:33:19.310Z,2.80
2023-04-16T12:35:51.205Z,3.00
2023-04-16T12:38:24.533Z,2.87
2023-04-16T12:40:57.351Z,8.03
2023-04-16T12:43:28.722Z,2.90
2023-04-16T12:46:18.349Z,4.27
2023-04-16T12:48:50.607Z,2.90
2023-04-16T12:51:21.589Z,4.40
2023-04-16T12:56:31.918Z,5.10
2023-04-16T12:59:03.053Z,4.97
2023-04-16T13:01:35.889Z,4.60
2023-04-16T13:04:07.880Z,3.73
2023-04-16T13:06:39.576Z,6.27
2023-04-16T13:09:12.033Z,4.53
2023-04-16T13:11:43.412Z,6.00
2023-04-16T13:14:14.532Z,6.80
2023-04-16T13:16:45.566Z,5.63
2023-04-16T13:19:18.611Z,5.77
2023-04-16T13:21:49.866Z,6.30
2023-04-16T13:24:21.097Z,4.90
2023-04-16T13:26:53.813Z,9.20
2023-04-16T13:29:24.950Z,6.60
2023-04-16T13:31:55.982Z,9.47
2023-04-16T13:34:27.374Z,5.30
2023-04-16T13:36:58.509Z,5.73
2023-04-16T13:39:29.571Z,6.97
2023-04-16T13:42:01.157Z,6.20
2023-04-16T13:44:34.722Z,7.30
2023-04-16T13:47:06.340Z,7.17
2023-04-16T13:49:37.652Z,6.67
2023-04-16T13:54:47.776Z,7.33
2023-04-16T13:57:19.927Z,8.63
2023-04-16T13:59:51.055Z,6.27
2023-04-16T14:02:23.569Z,7.50
2023-04-16T14:04:54.718Z,5.77
2023-04-16T14:07:27.332Z,7.90
2023-04-16T14:09:58.192Z,6.10
2023-04-16T14:12:30.195Z,9.17
2023-04-16T14:15:02.264Z,6.13
2023-04-16T14:17:33.546Z,6.83
2023-04-16T14:20:06.290Z,6.80
2023-04-16T14:22:55.747Z,7.83
2023-04-16T14:25:27.439Z,6.83
2023-04-16T14:27:58.384Z,7.57
2023-04-16T14:30:29.554Z,6.33
2023-04-16T14:33:19.169Z,6.03
2023-04-16T14:36:09.086Z,6.80
2023-04-16T14:38:41.148Z,7.00
2023-04-16T14:41:14.082Z,7.13
2023-04-16T14:43:45.346Z,6.50
2023-04-16T14:46:17.852Z,6.83
2023-04-16T14:48:49.006Z,8.50
2023-04-16T14:51:20.108Z,8.73
2023-04-16T14:53:51.480Z,10.17
2023-04-16T14:56:22.438Z,10.80
2023-04-16T14:58:53.565Z,8.80
2023-04-16T15:01:24.767Z,12.27
2023-04-16T15:03:59.182Z,7.60
2023-04-16T15:06:32.435Z,8.93
2023-04-16T15:09:03.539Z,7.27
2023-04-16T15:11:34.503Z,8.37
2023-04-16T15:14:05.758Z,11.33
2023-04-16T15:16:37.009Z,10.00
2023-04-16T15:19:08.279Z,11.57
2023-04-16T15:21:39.538Z,9.13
2023-04-16T15:24:11.756Z,9.90
2023-04-16T15:26:43.150Z,12.27
2023-04-16T15:29:14.739Z,10.57
2023-04-16T15:31:47.230Z,10.57
2023-04-16T15:34:19.905Z,11.00
2023-04-16T15:36:51.084Z,10.27
2023-04-16T15:39:22.473Z,9.23
2023-04-16T15:44:33.519Z,13.20
2023-04-16T15:47:06.560Z,17.13
2023-04-16T15:49:37.639Z,9.90
2023-04-16T15:52:09.051Z,13.40
2023-04-16T15:54:40.985Z,12.00
2023-04-16T15:57:12.561Z,13.68
2023-04-16T15:59:46.205Z,11.83
2023-04-16T16:02:16.438Z,16.90
2023-04-16T16:04:48.177Z,15.33
2023-04-16T16:07:20.810Z,12.83
2023-04-16T16:09:53.194Z,13.77
2023-04-16T16:12:24.676Z,14.10
2023-04-16T16:14:55.764Z,17.53
2023-04-16T16:17:27.104Z,14.67
2023-04-16T16:19:58.200Z,15.60
2023-04-16T16:22:30.013Z,19.17
2023-04-16T16:25:01.233Z,15.00
2023-04-16T16:27:32.663Z,13.33
2023-04-16T16:30:04.974Z,15.33
2023-04-16T16:32:36.213Z,19.20
2023-04-16T16:35:09.496Z,14.15
2023-04-16T16:37:40.604Z,14.07
2023-04-16T16:40:13.381Z,13.63
2023-04-16T16:42:44.572Z,12.47
2023-04-16T16:45:15.901Z,15.10
2023-04-16T16:47:47.035Z,11.70
2023-04-16T16:50:18.227Z,12.67
2023-04-16T16:52:49.278Z,15.43
2023-04-16T16:55:21.019Z,11.13
2023-04-16T16:57:52.814Z,14.87
2023-04-16T17:00:25.064Z,14.70
2023-04-16T17:02:56.629Z,18.33
2023-04-16T17:05:27.884Z,14.77
2023-04-16T17:07:58.968Z,17.70
2023-04-16T17:10:30.333Z,16.63
2023-04-16T17:13:01.990Z,15.90
2023-04-16T17:15:32.911Z,14.70
2023-04-16T17:18:04.184Z,13.43
2023-04-16T17:20:35.426Z,14.43
2023-04-16T17:23:06.498Z,15.10
2023-04-16T17:25:38.167Z,16.90
2023-04-16T17:28:09.326Z,15.97
2023-04-16T17:30:40.477Z,15.70
2023-04-16T17:33:11.604Z,17.63
2023-04-16T17:35:43.192Z,17.03
2023-04-16T17:38:14.731Z,16.20
2023-04-16T17:40:46.249Z,17.20
2023-04-16T17:43:17.194Z,18.43
2023-04-16T17:45:48.517Z,20.33
2023-04-16T17:48:20.038Z,14.73
2023-04-16T17:50:51.290Z,16.50
2023-04-16T17:53:22.784Z,16.83
2023-04-16T17:55:56.677Z,17.07
2023-04-16T17:58:27.229Z,16.60
2023-04-16T18:00:58.437Z,17.10
2023-04-16T18:03:29.719Z,16.13
2023-04-16T18:06:00.876Z,13.23
2023-04-16T18:08:31.862Z,16.23
2023-04-16T18:11:04.321Z,14.73
2023-04-16T18:13:35.591Z,16.27
2023-04-16T18:16:07.662Z,14.60
2023-04-16T18:18:38.929Z,15.77
2023-04-16T18:21:10.354Z,17.53
2023-04-16T18:23:41.407Z,14.40
2023-04-16T18:26:12.886Z,13.43
2023-04-16T18:28:43.932Z,15.32
2023-04-16T18:31:14.811Z,17.10
2023-04-16T18:33:56.521Z,16.63
2023-04-16T18:36:19.045Z,17.27
2023-04-16T18:39:00.301Z,14.60
2023-04-16T18:41:23.210Z,16.70
2023-04-16T18:43:54.582Z,14.80
2023-04-16T18:46:27.008Z,16.87
2023-04-16T18:48:59.225Z,17.00
2023-04-16T18:51:30.338Z,16.20
2023-04-16T18:54:01.373Z,15.37
2023-04-16T18:56:32.864Z,15.73
2023-04-16T18:59:03.775Z,16.87
2023-04-16T19:01:35.038Z,16.27
2023-04-16T19:04:06.570Z,20.27
2023-04-16T19:06:37.718Z,14.03
2023-04-16T19:09:11.437Z,15.00
2023-04-16T19:11:41.687Z,14.57
2023-04-16T19:14:12.689Z,13.67
2023-04-16T19:16:43.905Z,14.70
2023-04-16T19:19:14.908Z,16.60
2023-04-16T19:21:46.324Z,18.00
2023-04-16T19:24:18.897Z,15.80
2023-04-16T19:26:50.099Z,14.00
2023-04-16T19:29:21.343Z,13.50
2023-04-16T19:31:52.533Z,14.40
2023-04-16T19:34:23.800Z,15.00
2023-04-16T19:36:54.852Z,14.63
2023-04-16T19:39:28.580Z,14.40
2023-04-16T19:41:59.565Z,15.20
2023-04-16T19:44:30.820Z,14.07
2023-04-16T19:47:01.868Z,13.63
2023-04-16T19:49:34.338Z,15.00
2023-04-16T19:52:16.435Z,13.93
2023-04-16T19:54:47.967Z,12.65
2023-04-16T19:57:19.047Z,13.37
2023-04-16T19:59:49.774Z,14.63
2023-04-16T20:02:21.009Z,13.80
2023-04-16T20:04:53.337Z,13.83
2023-04-16T20:07:24.192Z,12.17
2023-04-16T20:09:55.480Z,11.30
2023-04-16T20:12:26.523Z,13.33
2023-04-16T20:14:57.648Z,12.20
2023-04-16T20:17:47.177Z,12.40
2023-04-16T20:20:18.124Z,13.13
2023-04-16T20:22:49.009Z,13.67
2023-04-16T20:25:20.639Z,12.17
2023-04-16T20:27:51.791Z,13.83
2023-04-16T20:30:25.108Z,12.40
2023-04-16T20:32:56.317Z,12.70
2023-04-16T20:35:27.451Z,13.43
2023-04-16T20:37:58.627Z,13.70
2023-04-16T20:40:31.040Z,14.83
2023-04-16T20:43:02.408Z,10.80
2023-04-16T20:45:35.354Z,16.77
2023-04-16T20:48:07.081Z,12.03
2023-04-16T20:50:38.263Z,13.63
2023-04-16T20:53:09.504Z,12.40
2023-04-16T20:55:41.265Z,17.67
2023-04-16T20:58:12.271Z,15.53
2023-04-16T21:00:43.334Z,13.00
2023-04-16T21:03:14.503Z,14.80
2023-04-16T21:05:50.918Z,11.53
2023-04-16T21:08:22.584Z,11.63
2023-04-16T21:10:53.876Z,12.40
2023-04-16T21:13:25.758Z,11.73
2023-04-16T21:18:42.105Z,11.30
2023-04-16T21:21:13.159Z,12.23
2023-04-16T21:23:44.054Z,14.40
2023-04-16T21:26:15.041Z,12.67
2023-04-16T21:28:46.084Z,13.13
2023-04-16T21:31:16.976Z,12.53
2023-04-16T21:33:47.878Z,10.83
2023-04-16T21:36:18.968Z,13.23
2023-04-16T21:38:50.255Z,13.00
2023-04-16T21:41:21.314Z,11.23
2023-04-16T21:43:52.455Z,11.03
2023-04-16T21:46:23.698Z,11.27
2023-04-16T21:48:54.726Z,10.20
2023-04-16T21:51:27.378Z,11.43
2023-04-16T21:53:58.649Z,13.27
2023-04-16T21:56:29.490Z,10.87
2023-04-16T21:59:00.512Z,12.47
2023-04-16T22:01:32.664Z,9.57
2023-04-16T22:04:04.005Z,11.63
2023-04-16T22:06:34.932Z,11.40
2023-04-16T22:09:06.915Z,9.20
2023-04-16T22:11:38.495Z,12.17
2023-04-16T22:14:09.376Z,11.90
2023-04-16T22:16:40.573Z,12.23
2023-04-16T22:19:12.072Z,12.50
2023-04-16T22:21:43.028Z,10.27
2023-04-16T22:24:14.098Z,10.90
2023-04-16T22:26:45.026Z,12.07
2023-04-16T22:29:16.171Z,11.17
2023-04-16T22:32:05.892Z,10.27
2023-04-16T22:34:37.083Z,10.60
2023-04-16T22:37:08.761Z,11.73
2023-04-16T22:39:43.119Z,11.57
2023-04-16T22:42:15.100Z,13.57
2023-04-16T22:44:46.158Z,12.00
2023-04-16T22:47:17.266Z,9.73
2023-04-16T22:49:48.229Z,8.90
2023-04-16T22:52:19.154Z,9.47
2023-04-16T22:54:50.081Z,8.80
2023-04-16T22:57:23.460Z,10.33
2023-04-16T22:59:54.574Z,9.33
2023-04-16T23:02:25.643Z,9.47
2023-04-16T23:04:56.547Z,9.77
2023-04-16T23:07:27.737Z,12.47
2023-04-16T23:09:58.714Z,9.13
2023-04-16T23:12:29.736Z,12.00
2023-04-16T23:15:01.642Z,7.47
2023-04-16T23:17:33.794Z,7.93
2023-04-16T23:20:07.699Z,9.40
2023-04-16T23:22:39.778Z,8.47
2023-04-16T23:25:11.946Z,9.93
2023-04-16T23:27:42.991Z,10.50
2023-04-16T23:30:15.897Z,12.67
2023-04-16T23:32:46.987Z,9.43
2023-04-16T23:35:20.450Z,8.60
2023-04-16T23:37:51.687Z,9.67
2023-04-16T23:40:22.997Z,9.03
2023-04-16T23:42:54.164Z,7.80
2023-04-16T23:45:25.143Z,10.53
2023-04-16T23:47:56.299Z,7.87
2023-04-16T23:50:27.246Z,9.87
2023-04-16T23:52:58.347Z,7.80
2023-04-16T23:55:29.374Z,8.40
